Time,TemperatureF,DewpointF,PressureIn,WindDirection,WindDirectionDegrees,WindSpeedMPH,WindSpeedGustMPH,Humidity,HourlyPrecipIn,Conditions,Clouds,dailyrainin,SoftwareType,DateUTC
2013-03-03 00:12:00,36.8,32.0,29.62,NW,311,4.0,6.0,84,0.00,,,0.00,weatherlink.com 1.10,2013-03-03 05:12:00,
2013-03-03 00:27:00,36.9,32.0,29.62,WNW,290,3.0,5.0,83,0.00,,,0.00,weatherlink.com 1.10,2013-03-03 05:27:00,
2013-03-03 00:42:00,37.0,32.0,29.63,WNW,297,6.0,9.0,81,0.00,,,0.00,weatherlink.com 1.10,2013-03-03 05:42:00,
2013-03-03 00:57:00,37.2,32.0,29.63,NW,304,5.0,13.0,81,0.00,,,0.00,weatherlink.com 1.10,2013-03-03 05:57:00,
2013-03-03 01:12:00,37.0,33.0,29.62,NW,315,4.0,11.0,85,0.00,,,0.00,weatherlink.com 1.10,2013-03-03 06:12:00,
2013-03-03 01:27:00,36.5,34.0,29.62,NW,307,7.0,11.0,90,0.00,,,0.00,weatherlink.com 1.10,2013-03-03 06:27:00,
2013-03-03 01:42:00,36.2,34.0,29.62,WNW,297,7.0,13.0,91,0.00,,,0.00,weatherlink.com 1.10,2013-03-03 06:42:00,
2013-03-03 01:57:00,36.2,34.0,29.61,NW,307,7.0,11.0,92,0.00,,,0.00,weatherlink.com 1.10,2013-03-03 06:57:00,
2013-03-03 02:12:00,36.2,34.0,29.61,NW,311,10.0,15.0,92,0.00,,,0.00,weatherlink.com 1.10,2013-03-03 07:12:00,
2013-03-03 02:27:00,35.9,34.0,29.61,NW,319,8.0,13.0,92,0.00,,,0.00,weatherlink.com 1.10,2013-03-03 07:27:00,
2013-03-03 02:42:00,35.9,34.0,29.61,NW,323,6.0,10.0,93,0.00,,,0.00,weatherlink.com 1.10,2013-03-03 07:42:00,
2013-03-03 02:57:00,35.7,34.0,29.61,NNW,333,6.0,13.0,94,0.00,,,0.00,weatherlink.com 1.10,2013-03-03 07:57:00,
2013-03-03 03:12:00,35.7,34.0,29.60,NW,322,5.0,12.0,94,0.00,,,0.00,weatherlink.com 1.10,2013-03-03 08:12:00,
2013-03-03 03:27:00,35.6,34.0,29.61,NNW,330,9.0,13.0,93,0.00,,,0.00,weatherlink.com 1.10,2013-03-03 08:27:00,
2013-03-03 03:42:00,35.6,34.0,29.60,NW,326,5.0,10.0,93,0.00,,,0.00,weatherlink.com 1.10,2013-03-03 08:42:00,
2013-03-03 03:57:00,35.6,34.0,29.60,NW,326,10.0,13.0,92,0.00,,,0.00,weatherlink.com 1.10,2013-03-03 08:57:00,
2013-03-03 04:12:00,35.6,34.0,29.61,NW,325,6.0,10.0,92,0.00,,,0.00,weatherlink.com 1.10,2013-03-03 09:12:00,
2013-03-03 04:27:00,35.6,33.0,29.61,NNW,333,8.0,13.0,91,0.00,,,0.00,weatherlink.com 1.10,2013-03-03 09:27:00,
2013-03-03 04:42:00,35.7,33.0,29.61,NNW,329,5.0,10.0,91,0.00,,,0.00,weatherlink.com 1.10,2013-03-03 09:42:00,
2013-03-03 04:57:00,35.6,33.0,29.61,NW,325,4.0,10.0,91,0.00,,,0.00,weatherlink.com 1.10,2013-03-03 09:57:00,
2013-03-03 05:12:00,35.5,32.0,29.61,WNW,291,9.0,13.0,88,0.00,,,0.00,weatherlink.com 1.10,2013-03-03 10:12:00,
2013-03-03 05:27:00,35.3,32.0,29.61,NW,319,5.0,12.0,86,0.00,,,0.00,weatherlink.com 1.10,2013-03-03 10:27:00,
2013-03-03 05:42:00,35.1,31.0,29.62,NNW,336,8.0,12.0,84,0.00,,,0.00,weatherlink.com 1.10,2013-03-03 10:42:00,
2013-03-03 05:57:00,35.0,31.0,29.62,NW,326,7.0,13.0,84,0.00,,,0.00,weatherlink.com 1.10,2013-03-03 10:57:00,
2013-03-03 06:12:00,34.9,31.0,29.62,NW,322,6.0,11.0,85,0.00,,,0.00,weatherlink.com 1.10,2013-03-03 11:12:00,
2013-03-03 06:27:00,34.9,31.0,29.62,NNW,338,5.0,9.0,84,0.00,,,0.00,weatherlink.com 1.10,2013-03-03 11:27:00,
2013-03-03 06:42:00,34.9,31.0,29.63,NW,319,7.0,11.0,84,0.00,,,0.00,weatherlink.com 1.10,2013-03-03 11:42:00,
2013-03-03 06:57:00,34.9,31.0,29.63,NNW,335,7.0,11.0,84,0.00,,,0.00,weatherlink.com 1.10,2013-03-03 11:57:00,
2013-03-03 07:12:00,34.8,30.0,29.63,NW,322,5.0,13.0,84,0.00,,,0.00,weatherlink.com 1.10,2013-03-03 12:12:00,
2013-03-03 07:27:00,34.8,30.0,29.63,WNW,293,5.0,13.0,84,0.00,,,0.00,weatherlink.com 1.10,2013-03-03 12:27:00,
2013-03-03 07:43:00,34.8,30.0,29.63,NE,53,7.0,11.0,84,0.00,,,0.00,weatherlink.com 1.10,2013-03-03 12:43:00,
2013-03-03 07:58:00,34.9,31.0,29.63,NNW,333,5.0,10.0,84,0.00,,,0.00,weatherlink.com 1.10,2013-03-03 12:58:00,
2013-03-03 08:13:00,35.0,30.0,29.63,NNW,334,12.0,13.0,83,0.00,,,0.00,weatherlink.com 1.10,2013-03-03 13:13:00,
2013-03-03 08:28:00,35.0,30.0,29.63,NNW,333,11.0,14.0,83,0.00,,,0.00,weatherlink.com 1.10,2013-03-03 13:28:00,
2013-03-03 08:43:00,35.2,30.0,29.63,North,359,13.0,16.0,82,0.00,,,0.00,weatherlink.com 1.10,2013-03-03 13:43:00,
2013-03-03 08:58:00,35.2,31.0,29.62,WNW,292,6.0,14.0,83,0.00,,,0.00,weatherlink.com 1.10,2013-03-03 13:58:00,
2013-03-03 09:13:00,35.4,31.0,29.62,NNW,342,6.0,12.0,83,0.00,,,0.00,weatherlink.com 1.10,2013-03-03 14:13:00,
2013-03-03 09:28:00,35.5,31.0,29.62,NNW,333,7.0,13.0,85,0.00,,,0.00,weatherlink.com 1.10,2013-03-03 14:28:00,
2013-03-03 09:43:00,35.5,31.0,29.62,NNW,347,11.0,13.0,83,0.00,,,0.00,weatherlink.com 1.10,2013-03-03 14:43:00,
2013-03-03 09:58:00,35.7,31.0,29.61,NW,321,8.0,10.0,82,0.00,,,0.00,weatherlink.com 1.10,2013-03-03 14:58:00,
2013-03-03 10:14:00,35.8,31.0,29.61,North,352,6.0,12.0,82,0.00,,,0.00,weatherlink.com 1.10,2013-03-03 15:14:00,
2013-03-03 10:28:00,35.9,31.0,29.61,NW,316,7.0,12.0,82,0.00,,,0.00,weatherlink.com 1.10,2013-03-03 15:28:00,
2013-03-03 10:43:00,36.2,31.0,29.61,WNW,294,4.0,10.0,81,0.00,,,0.00,weatherlink.com 1.10,2013-03-03 15:43:00,
2013-03-03 10:58:00,36.2,31.0,29.61,NNW,339,7.0,9.0,81,0.00,,,0.00,weatherlink.com 1.10,2013-03-03 15:58:00,
2013-03-03 11:13:00,36.3,31.0,29.61,NNW,333,7.0,8.0,80,0.00,,,0.00,weatherlink.com 1.10,2013-03-03 16:13:00,
2013-03-03 11:28:00,36.0,31.0,29.61,NNW,328,8.0,10.0,81,0.00,,,0.00,weatherlink.com 1.10,2013-03-03 16:28:00,
2013-03-03 11:43:00,35.9,31.0,29.61,NNW,332,3.0,10.0,81,0.00,,,0.00,weatherlink.com 1.10,2013-03-03 16:43:00,
2013-03-03 11:58:00,36.3,31.0,29.60,NW,326,6.0,11.0,80,0.00,,,0.00,weatherlink.com 1.10,2013-03-03 16:58:00,
2013-03-03 12:13:00,36.8,32.0,29.60,SSW,211,3.0,9.0,81,0.00,,,0.00,weatherlink.com 1.10,2013-03-03 17:13:00,
2013-03-03 12:28:00,37.1,31.0,29.59,NW,317,6.0,8.0,79,0.00,,,0.00,weatherlink.com 1.10,2013-03-03 17:28:00,
2013-03-03 12:43:00,37.4,31.0,29.59,NW,315,4.0,10.0,78,0.00,,,0.00,weatherlink.com 1.10,2013-03-03 17:43:00,
2013-03-03 12:58:00,37.7,31.0,29.58,NNW,338,8.0,11.0,76,0.00,,,0.00,weatherlink.com 1.10,2013-03-03 17:58:00,
2013-03-03 13:13:00,37.5,32.0,29.58,WSW,257,12.0,12.0,81,0.00,,,0.00,weatherlink.com 1.10,2013-03-03 18:13:00,
2013-03-03 13:28:00,36.5,32.0,29.58,WSW,256,10.0,12.0,83,0.00,,,0.00,weatherlink.com 1.10,2013-03-03 18:28:00,
2013-03-03 13:58:00,36.3,32.0,29.58,West,269,13.0,14.0,83,0.00,,,0.00,weatherlink.com 1.10,2013-03-03 18:58:00,
2013-03-03 14:13:00,36.5,32.0,29.58,WSW,241,12.0,16.0,84,0.00,,,0.00,weatherlink.com 1.10,2013-03-03 19:13:00,
2013-03-03 14:28:00,36.5,32.0,29.58,West,260,12.0,17.0,82,0.00,,,0.00,weatherlink.com 1.10,2013-03-03 19:28:00,
2013-03-03 14:43:00,36.5,31.0,29.57,West,278,13.0,15.0,80,0.00,,,0.00,weatherlink.com 1.10,2013-03-03 19:43:00,
2013-03-03 14:58:00,36.6,31.0,29.58,West,270,11.0,16.0,80,0.00,,,0.00,weatherlink.com 1.10,2013-03-03 19:58:00,
2013-03-03 15:13:00,36.7,31.0,29.58,West,281,11.0,16.0,80,0.00,,,0.00,weatherlink.com 1.10,2013-03-03 20:13:00,
2013-03-03 15:28:00,36.7,30.0,29.58,West,270,13.0,13.0,78,0.00,,,0.00,weatherlink.com 1.10,2013-03-03 20:28:00,
2013-03-03 15:43:00,36.7,31.0,29.57,West,267,11.0,15.0,79,0.00,,,0.00,weatherlink.com 1.10,2013-03-03 20:43:00,
2013-03-03 15:58:00,36.6,31.0,29.57,West,269,11.0,15.0,79,0.00,,,0.00,weatherlink.com 1.10,2013-03-03 20:58:00,
2013-03-03 16:13:00,36.7,31.0,29.57,West,271,13.0,17.0,79,0.00,,,0.00,weatherlink.com 1.10,2013-03-03 21:13:00,
2013-03-03 16:28:00,36.6,31.0,29.58,West,272,15.0,18.0,79,0.00,,,0.00,weatherlink.com 1.10,2013-03-03 21:28:00,
2013-03-03 16:43:00,36.6,31.0,29.58,West,274,12.0,18.0,80,0.00,,,0.00,weatherlink.com 1.10,2013-03-03 21:43:00,
2013-03-03 16:58:00,36.5,31.0,29.58,WNW,288,13.0,17.0,81,0.00,,,0.00,weatherlink.com 1.10,2013-03-03 21:58:00,
2013-03-03 17:13:00,36.5,31.0,29.58,West,280,8.0,12.0,81,0.00,,,0.00,weatherlink.com 1.10,2013-03-03 22:13:00,
2013-03-03 17:28:00,36.6,31.0,29.58,WNW,285,5.0,9.0,81,0.00,,,0.00,weatherlink.com 1.10,2013-03-03 22:28:00,
2013-03-03 17:43:00,36.6,31.0,29.58,WNW,302,3.0,5.0,80,0.00,,,0.00,weatherlink.com 1.10,2013-03-03 22:43:00,
2013-03-03 17:58:00,36.5,31.0,29.59,WNW,303,3.0,4.0,80,0.00,,,0.00,weatherlink.com 1.10,2013-03-03 22:58:00,
2013-03-03 18:13:00,36.4,31.0,29.58,WNW,295,1.0,3.0,81,0.00,,,0.00,weatherlink.com 1.10,2013-03-03 23:13:00,
2013-03-03 18:28:00,36.1,31.0,29.59,WNW,290,1.0,3.0,82,0.00,,,0.00,weatherlink.com 1.10,2013-03-03 23:28:00,
2013-03-03 18:43:00,36.0,31.0,29.59,WNW,288,1.0,2.0,83,0.00,,,0.00,weatherlink.com 1.10,2013-03-03 23:43:00,
2013-03-03 18:58:00,35.9,31.0,29.59,NW,307,1.0,2.0,83,0.00,,,0.00,weatherlink.com 1.10,2013-03-03 23:58:00,
2013-03-03 19:13:00,35.7,31.0,29.59,WNW,287,1.0,2.0,83,0.00,,,0.00,weatherlink.com 1.10,2013-03-04 00:13:00,
2013-03-03 19:28:00,35.6,31.0,29.59,WNW,287,1.0,2.0,84,0.00,,,0.00,weatherlink.com 1.10,2013-03-04 00:28:00,
2013-03-03 19:43:00,35.8,32.0,29.59,WNW,290,3.0,4.0,85,0.00,,,0.00,weatherlink.com 1.10,2013-03-04 00:43:00,
2013-03-03 19:58:00,35.7,32.0,29.59,WNW,288,2.0,4.0,85,0.00,,,0.00,weatherlink.com 1.10,2013-03-04 00:58:00,
2013-03-03 20:13:00,35.7,32.0,29.59,West,264,4.0,5.0,85,0.00,,,0.00,weatherlink.com 1.10,2013-03-04 01:13:00,
2013-03-03 20:28:00,35.6,32.0,29.60,WNW,289,4.0,5.0,85,0.00,,,0.00,weatherlink.com 1.10,2013-03-04 01:28:00,
2013-03-03 20:43:00,35.6,32.0,29.59,WNW,285,3.0,5.0,85,0.00,,,0.00,weatherlink.com 1.10,2013-03-04 01:43:00,
2013-03-03 20:58:00,35.5,31.0,29.59,NW,304,1.0,5.0,84,0.00,,,0.00,weatherlink.com 1.10,2013-03-04 01:58:00,
2013-03-03 21:13:00,35.4,31.0,29.59,West,280,2.0,4.0,84,0.00,,,0.00,weatherlink.com 1.10,2013-03-04 02:13:00,
2013-03-03 21:28:00,35.3,31.0,29.59,WNW,298,3.0,4.0,84,0.00,,,0.00,weatherlink.com 1.10,2013-03-04 02:28:00,
2013-03-03 21:43:00,35.3,31.0,29.59,WNW,287,3.0,5.0,83,0.00,,,0.00,weatherlink.com 1.10,2013-03-04 02:43:00,
2013-03-03 21:58:00,35.2,31.0,29.59,WNW,287,3.0,5.0,83,0.00,,,0.00,weatherlink.com 1.10,2013-03-04 02:58:00,
2013-03-03 22:13:00,35.1,31.0,29.59,WNW,287,2.0,4.0,84,0.00,,,0.00,weatherlink.com 1.10,2013-03-04 03:13:00,
2013-03-03 22:28:00,35.0,31.0,29.59,WNW,283,2.0,5.0,85,0.00,,,0.00,weatherlink.com 1.10,2013-03-04 03:28:00,
2013-03-03 22:43:00,34.9,31.0,29.59,West,278,4.0,6.0,86,0.00,,,0.00,weatherlink.com 1.10,2013-03-04 03:43:00,
2013-03-03 22:58:00,35.2,32.0,29.58,NNW,332,8.0,14.0,87,0.00,,,0.00,weatherlink.com 1.10,2013-03-04 03:58:00,
2013-03-03 23:13:00,35.2,32.0,29.58,NW,304,2.0,15.0,89,0.00,,,0.00,weatherlink.com 1.10,2013-03-04 04:13:00,
2013-03-03 23:28:00,34.8,32.0,29.58,NW,317,6.0,13.0,90,0.00,,,0.00,weatherlink.com 1.10,2013-03-04 04:28:00,
2013-03-03 23:43:00,34.4,32.0,29.58,WNW,303,6.0,13.0,91,0.00,,,0.00,weatherlink.com 1.10,2013-03-04 04:43:00,
2013-03-03 23:58:00,34.3,32.0,29.58,NW,314,4.0,14.0,91,0.00,,,0.00,weatherlink.com 1.10,2013-03-04 04:58:00,